Time;durP1;ratioP1;P1;durP2;ratioP2;P2;SDS_P1;SDS_P2;PMS_P1;PMS_P2;Temp;Humidity;BMP_temperature;BMP_pressure;BME280_temperature;BME280_humidity;BME280_pressure;Samples;Min_cycle;Max_cycle;Signal;HPM_P1;HPM_P2
2021/12/29 00:00:34;;;;;;;8.33;4.77;;;9.40;99.90;;;;;;4970859;28;20033;-68
2021/12/29 00:03:02;;;;;;;13.47;5.27;;;9.40;99.90;;;;;;4970205;28;20031;-68
2021/12/29 00:05:28;;;;;;;9.20;5.30;;;9.60;99.90;;;;;;4970453;28;20499;-68
2021/12/29 00:07:54;;;;;;;8.53;5.10;;;9.50;99.90;;;;;;4969707;28;20031;-68
2021/12/29 00:10:21;;;;;;;8.60;5.30;;;9.50;99.90;;;;;;4970822;28;20399;-68
2021/12/29 00:12:51;;;;;;;9.77;5.63;;;9.50;99.90;;;;;;4970299;28;20023;-68
2021/12/29 00:15:18;;;;;;;8.60;4.97;;;9.60;99.90;;;;;;4970715;28;20126;-68
2021/12/29 00:17:45;;;;;;;9.83;5.10;;;9.40;99.90;;;;;;4970408;28;20034;-68
2021/12/29 00:20:13;;;;;;;10.40;5.10;;;9.50;99.90;;;;;;4970711;28;20033;-68
2021/12/29 00:22:39;;;;;;;7.30;4.07;;;9.50;99.90;;;;;;4969683;28;20077;-68
2021/12/29 00:25:06;;;;;;;5.10;4.10;;;9.50;99.90;;;;;;4970770;28;20453;-68
2021/12/29 00:27:32;;;;;;;9.00;4.30;;;9.60;99.90;;;;;;4970275;28;20421;-68
2021/12/29 00:29:57;;;;;;;10.30;5.70;;;9.40;99.90;;;;;;4970311;28;20125;-68
2021/12/29 00:32:23;;;;;;;6.40;4.57;;;9.50;99.90;;;;;;4970514;28;20062;-68
2021/12/29 00:34:49;;;;;;;8.93;5.03;;;;;;;;;;4957918;28;20031;-68
2021/12/29 00:37:14;;;;;;;7.30;4.27;;;9.50;99.90;;;;;;4948691;28;20035;-68
2021/12/29 00:39:40;;;;;;;10.10;5.60;;;;;;;;;;4961660;28;20042;-68
2021/12/29 00:42:07;;;;;;;8.43;5.87;;;;;;;;;;4970287;28;20089;-68
2021/12/29 00:44:33;;;;;;;9.87;6.90;;;9.00;99.90;;;;;;4969942;28;20034;-68
2021/12/29 00:46:59;;;;;;;14.23;7.20;;;;;;;;;;4970046;28;20031;-68
2021/12/29 00:49:33;;;;;;;13.53;7.70;;;9.40;99.90;;;;;;4968575;28;20039;-68
2021/12/29 00:52:00;;;;;;;15.23;6.93;;;9.40;99.90;;;;;;4969549;28;20081;-68
2021/12/29 00:54:26;;;;;;;12.27;7.57;;;9.10;99.90;;;;;;4969457;28;20132;-68
2021/12/29 00:56:52;;;;;;;10.83;6.97;;;9.30;99.90;;;;;;4969865;28;20034;-68
2021/12/29 00:59:19;;;;;;;17.90;8.10;;;;;;;;;;4970083;28;20031;-68
2021/12/29 01:01:45;;;;;;;14.37;8.77;;;9.40;99.90;;;;;;4969061;28;20031;-68
2021/12/29 01:04:11;;;;;;;16.43;8.00;;;9.30;99.90;;;;;;4970090;28;20045;-68
2021/12/29 01:06:37;;;;;;;14.50;8.27;;;9.40;99.90;;;;;;4969304;28;20039;-68
2021/12/29 01:09:03;;;;;;;15.27;8.00;;;;;;;;;;4969561;28;20027;-68
2021/12/29 01:11:28;;;;;;;18.50;8.13;;;9.20;99.90;;;;;;4969531;28;20101;-68
2021/12/29 01:13:54;;;;;;;15.23;7.57;;;9.40;99.90;;;;;;4968878;28;20038;-68
2021/12/29 01:19:04;;;;;;;12.07;7.13;;;9.10;99.90;;;;;;4969762;28;20035;-68
2021/12/29 01:21:31;;;;;;;13.13;7.17;;;9.30;99.90;;;;;;4968852;28;20039;-68
2021/12/29 01:23:57;;;;;;;12.33;6.63;;;9.30;99.90;;;;;;4969280;28;20074;-69
2021/12/29 01:26:23;;;;;;;10.20;5.57;;;;;;;;;;4969628;28;20061;-68
2021/12/29 01:28:49;;;;;;;16.17;6.80;;;;;;;;;;4969214;28;20496;-68
2021/12/29 01:31:15;;;;;;;14.87;7.73;;;;;;;;;;4969587;28;20031;-68
2021/12/29 01:33:41;;;;;;;18.83;7.67;;;9.40;99.90;;;;;;4969049;28;20027;-68
2021/12/29 01:36:07;;;;;;;19.37;7.37;;;;;;;;;;4968822;28;20035;-68
2021/12/29 01:38:32;;;;;;;13.37;7.33;;;9.40;99.90;;;;;;4969348;28;20055;-68
2021/12/29 01:40:58;;;;;;;12.23;6.03;;;9.50;99.90;;;;;;4969022;28;20050;-68
2021/12/29 01:43:23;;;;;;;18.93;7.37;;;9.40;99.90;;;;;;4969176;28;20368;-68
2021/12/29 01:45:49;;;;;;;14.07;6.93;;;;;;;;;;4969074;28;20038;-68
2021/12/29 01:48:16;;;;;;;16.13;7.70;;;;;;;;;;4969353;28;20050;-68
2021/12/29 01:50:48;;;;;;;13.93;6.33;;;9.40;99.90;;;;;;4968161;28;20030;-68
2021/12/29 01:53:22;;;;;;;14.20;7.00;;;9.40;99.90;;;;;;4969050;28;20023;-69
2021/12/29 01:55:48;;;;;;;13.70;7.17;;;9.40;99.90;;;;;;4968699;28;20456;-68
2021/12/29 01:58:14;;;;;;;16.00;8.53;;;9.40;99.90;;;;;;4968938;28;20031;-68
2021/12/29 02:00:41;;;;;;;12.27;7.37;;;9.30;99.90;;;;;;4968718;28;20143;-68
2021/12/29 02:03:08;;;;;;;11.33;8.37;;;9.40;99.90;;;;;;4968640;28;20030;-68
2021/12/29 02:05:34;;;;;;;13.83;8.93;;;9.10;99.90;;;;;;4968932;28;20435;-68
2021/12/29 02:08:00;;;;;;;12.53;7.13;;;9.40;99.90;;;;;;4968704;28;20081;-68
2021/12/29 02:10:30;;;;;;;17.50;8.27;;;9.30;99.90;;;;;;4968855;28;20372;-68
2021/12/29 02:12:57;;;;;;;12.57;6.47;;;9.40;99.90;;;;;;4968856;28;20113;-68
2021/12/29 02:15:23;;;;;;;16.97;7.63;;;;;;;;;;4968954;28;20034;-69
2021/12/29 02:17:50;;;;;;;18.17;9.63;;;9.40;99.90;;;;;;4968142;28;20361;-69
2021/12/29 02:20:19;;;;;;;16.30;7.87;;;9.50;99.90;;;;;;4969051;28;20358;-68
2021/12/29 02:22:48;;;;;;;14.60;7.73;;;;;;;;;;4968217;28;20054;-68
2021/12/29 02:27:48;;;;;;;17.67;6.83;;;9.70;99.90;;;;;;4972443;28;20027;-68
2021/12/29 02:30:16;;;;;;;11.50;6.65;;;9.40;99.90;;;;;;4972572;28;20054;-68
2021/12/29 02:32:43;;;;;;;16.20;6.63;;;9.40;99.90;;;;;;4971688;28;20027;-69
2021/12/29 02:35:11;;;;;;;15.87;6.93;;;9.40;99.90;;;;;;4987205;28;20141;-68
2021/12/29 02:37:38;;;;;;;11.53;7.13;;;;;;;;;;4970486;28;20026;-68
2021/12/29 02:40:05;;;;;;;14.13;7.30;;;9.40;99.90;;;;;;4970322;28;20030;-68
2021/12/29 02:42:38;;;;;;;13.00;6.37;;;9.50;99.90;;;;;;4970451;28;20527;-68
2021/12/29 02:45:05;;;;;;;22.40;8.20;;;9.20;99.90;;;;;;4970605;28;20037;-68
2021/12/29 02:47:31;;;;;;;15.17;6.93;;;9.30;99.90;;;;;;4969938;28;20030;-68
2021/12/29 02:49:57;;;;;;;16.53;6.40;;;9.40;99.90;;;;;;4970092;28;20089;-68
2021/12/29 02:52:24;;;;;;;17.80;6.60;;;;;;;;;;4970367;28;20234;-68
2021/12/29 02:54:50;;;;;;;18.40;6.20;;;9.40;99.90;;;;;;4971911;28;20034;-68
2021/12/29 02:57:16;;;;;;;12.00;6.00;;;9.30;99.90;;;;;;4972250;28;20078;-69
2021/12/29 02:59:41;;;;;;;17.37;6.83;;;9.40;99.90;;;;;;4971731;28;20031;-68
2021/12/29 03:02:07;;;;;;;18.80;6.50;;;;;;;;;;4971699;28;20041;-68
2021/12/29 03:04:33;;;;;;;15.20;6.63;;;;;;;;;;4972002;28;20074;-69
2021/12/29 03:06:59;;;;;;;13.57;6.20;;;9.50;99.90;;;;;;4971592;28;20133;-68
2021/12/29 03:09:25;;;;;;;15.60;6.83;;;;;;;;;;4971433;28;20480;-68
2021/12/29 03:11:51;;;;;;;12.67;6.77;;;9.30;99.90;;;;;;4972154;28;20527;-68
2021/12/29 03:14:17;;;;;;;15.90;7.23;;;;;;;;;;4971816;28;20038;-68
2021/12/29 03:16:44;;;;;;;17.57;7.63;;;9.30;99.90;;;;;;4970851;28;20118;-68
2021/12/29 03:19:10;;;;;;;16.83;7.00;;;9.40;99.90;;;;;;4971869;28;20495;-68
2021/12/29 03:21:36;;;;;;;15.27;6.93;;;9.30;99.90;;;;;;4971410;28;20030;-68
2021/12/29 03:24:03;;;;;;;15.33;7.50;;;9.40;99.90;;;;;;4971707;28;20448;-68
2021/12/29 03:26:29;;;;;;;15.67;8.13;;;9.30;99.90;;;;;;4971363;28;20031;-68
2021/12/29 03:28:57;;;;;;;22.27;9.40;;;9.30;99.90;;;;;;4971290;28;20062;-68
2021/12/29 03:31:23;;;;;;;21.40;10.50;;;;;;;;;;4971123;28;20499;-68
2021/12/29 03:33:49;;;;;;;26.70;9.90;;;9.20;99.90;;;;;;4971225;28;20035;-68
2021/12/29 03:36:15;;;;;;;19.37;8.47;;;;;;;;;;4971675;28;20072;-68
2021/12/29 03:38:42;;;;;;;23.97;10.23;;;9.10;99.90;;;;;;4970039;28;20031;-68
2021/12/29 03:41:13;;;;;;;28.73;9.87;;;9.30;99.90;;;;;;4971305;28;20070;-68
2021/12/29 03:43:40;;;;;;;21.73;9.37;;;9.20;99.90;;;;;;4971198;28;20035;-68
2021/12/29 03:46:07;;;;;;;22.67;9.87;;;9.10;99.90;;;;;;4970988;28;20026;-68
2021/12/29 03:48:35;;;;;;;17.47;8.57;;;9.10;99.90;;;;;;4971316;28;20065;-68
2021/12/29 03:51:02;;;;;;;16.80;8.77;;;9.40;99.90;;;;;;4971178;28;20150;-67
2021/12/29 03:53:27;;;;;;;18.67;8.17;;;9.10;99.90;;;;;;4970858;28;20081;-68
2021/12/29 03:55:53;;;;;;;21.43;8.90;;;;;;;;;;4970814;28;20464;-67
2021/12/29 03:58:21;;;;;;;18.70;8.73;;;9.30;99.90;;;;;;4971294;28;20023;-68
2021/12/29 04:00:49;;;;;;;26.20;10.07;;;9.20;99.90;;;;;;4970407;28;20121;-67
2021/12/29 04:03:16;;;;;;;15.93;8.60;;;;;;;;;;4971104;28;20042;-68
2021/12/29 04:05:42;;;;;;;20.33;8.30;;;9.20;99.90;;;;;;4970571;28;20773;-68
2021/12/29 04:08:08;;;;;;;17.03;7.50;;;8.80;99.90;;;;;;4970345;28;20042;-68
2021/12/29 04:10:34;;;;;;;18.30;7.50;;;9.20;99.90;;;;;;4970892;28;20034;-68
2021/12/29 04:13:00;;;;;;;23.13;9.63;;;9.20;99.90;;;;;;4970793;28;20031;-68
2021/12/29 04:15:27;;;;;;;18.20;10.10;;;9.30;99.90;;;;;;4970023;28;20561;-68
2021/12/29 04:17:58;;;;;;;21.43;9.07;;;9.20;99.90;;;;;;4970558;28;20097;-68
2021/12/29 04:23:14;;;;;;;16.17;8.33;;;9.30;99.90;;;;;;4970660;28;20551;-68
2021/12/29 04:25:41;;;;;;;15.90;8.97;;;9.20;99.90;;;;;;4970152;28;20125;-68
2021/12/29 04:28:13;;;;;;;17.93;9.30;;;9.20;99.90;;;;;;4970033;28;20436;-68
2021/12/29 04:30:40;;;;;;;15.47;9.50;;;9.30;99.90;;;;;;4969941;28;20050;-68
2021/12/29 04:33:06;;;;;;;18.60;9.10;;;;;;;;;;4970414;28;20042;-69
2021/12/29 04:35:31;;;;;;;19.80;10.17;;;9.20;99.90;;;;;;4970490;28;20108;-68
2021/12/29 04:37:57;;;;;;;17.87;9.73;;;;;;;;;;4969978;28;20035;-68
2021/12/29 04:40:23;;;;;;;19.63;10.03;;;;;;;;;;4970235;28;20035;-68
2021/12/29 04:42:49;;;;;;;22.00;10.40;;;9.30;99.90;;;;;;4969519;28;20023;-68
2021/12/29 04:45:16;;;;;;;18.07;9.13;;;8.80;99.90;;;;;;4968750;28;20126;-68
2021/12/29 04:47:44;;;;;;;13.37;8.90;;;9.10;99.90;;;;;;4969642;28;20038;-68
2021/12/29 04:50:26;;;;;;;17.33;9.20;;;9.20;99.90;;;;;;4970172;28;20031;-68
2021/12/29 04:52:56;;;;;;;16.40;9.40;;;9.20;99.90;;;;;;4969775;28;20030;-68
2021/12/29 04:55:22;;;;;;;18.13;8.33;;;9.00;99.90;;;;;;4970155;28;20449;-68
2021/12/29 04:57:48;;;;;;;14.67;7.00;;;;;;;;;;4969329;28;20061;-68
2021/12/29 05:00:15;;;;;;;13.50;8.20;;;8.60;99.90;;;;;;4969694;28;20103;-68
2021/12/29 05:02:41;;;;;;;13.20;8.50;;;9.20;99.90;;;;;;4969451;28;20077;-68
2021/12/29 05:05:19;;;;;;;14.87;8.43;;;9.10;99.90;;;;;;4969895;28;20464;-68
2021/12/29 05:10:29;;;;;;;12.13;8.63;;;;;;;;;;4950310;29;20039;-68
2021/12/29 05:12:55;;;;;;;15.77;8.47;;;9.20;99.90;;;;;;4948066;28;20031;-68
2021/12/29 05:15:20;;;;;;;17.53;8.50;;;8.80;99.90;;;;;;4960137;28;20050;-68
2021/12/29 05:17:46;;;;;;;14.23;8.53;;;9.20;99.90;;;;;;4983877;28;20069;-68
2021/12/29 05:20:12;;;;;;;14.20;7.97;;;9.10;99.90;;;;;;4969378;28;20065;-68
2021/12/29 05:22:38;;;;;;;12.20;7.73;;;;;;;;;;4969027;28;20100;-68
2021/12/29 05:25:03;;;;;;;15.47;8.93;;;9.10;99.90;;;;;;4969334;28;20173;-68
2021/12/29 05:27:29;;;;;;;15.73;9.37;;;9.30;99.90;;;;;;4967076;28;20034;-68
2021/12/29 05:29:54;;;;;;;13.93;9.67;;;9.60;99.90;;;;;;4968897;28;20211;-68
2021/12/29 05:32:20;;;;;;;17.73;10.73;;;9.10;99.90;;;;;;4969383;28;20375;-68
2021/12/29 05:34:46;;;;;;;16.47;10.17;;;9.30;99.90;;;;;;4967490;28;20464;-68
2021/12/29 05:37:11;;;;;;;20.67;12.77;;;9.10;99.90;;;;;;4967846;28;20361;-68
2021/12/29 05:39:37;;;;;;;18.63;12.03;;;;;;;;;;4968388;28;20062;-68
2021/12/29 05:42:03;;;;;;;21.00;12.30;;;9.20;99.90;;;;;;4968704;28;20023;-68
2021/12/29 05:44:29;;;;;;;17.73;11.77;;;;;;;;;;4968715;28;20109;-68
2021/12/29 05:46:54;;;;;;;17.60;10.13;;;9.20;99.90;;;;;;4969037;28;20029;-68
2021/12/29 05:49:20;;;;;;;17.90;11.40;;;9.10;99.90;;;;;;4969134;28;20118;-68
2021/12/29 05:51:45;;;;;;;15.70;11.30;;;9.30;99.90;;;;;;4968537;28;20031;-68
2021/12/29 05:54:11;;;;;;;18.40;11.30;;;9.30;99.90;;;;;;4968804;28;20379;-68
2021/12/29 05:56:37;;;;;;;19.33;11.03;;;9.30;99.90;;;;;;4967982;28;20035;-68
2021/12/29 05:59:03;;;;;;;17.07;9.97;;;9.50;99.90;;;;;;4969023;28;20396;-68
2021/12/29 06:01:31;;;;;;;21.13;12.97;;;9.00;99.90;;;;;;4973771;28;20114;-68
2021/12/29 06:03:56;;;;;;;18.17;10.83;;;9.00;99.90;;;;;;4972381;28;20034;-68
2021/12/29 06:06:22;;;;;;;15.60;11.00;;;;;;;;;;4974760;28;20109;-68
2021/12/29 06:08:48;;;;;;;21.53;11.97;;;9.20;99.90;;;;;;4974659;28;20062;-68
2021/12/29 06:11:14;;;;;;;20.37;11.00;;;9.30;99.90;;;;;;4974848;28;20026;-68
2021/12/29 06:13:39;;;;;;;13.50;9.90;;;9.40;99.90;;;;;;4974863;28;20038;-68
2021/12/29 06:16:05;;;;;;;12.73;9.77;;;9.70;99.90;;;;;;4975526;28;20065;-68
2021/12/29 06:18:30;;;;;;;16.60;9.97;;;9.40;99.90;;;;;;4975396;28;20018;-69
2021/12/29 06:20:56;;;;;;;15.97;9.57;;;9.40;99.90;;;;;;4990160;28;20439;-68
2021/12/29 06:23:21;;;;;;;12.93;10.10;;;9.30;99.90;;;;;;4975223;28;20034;-68
2021/12/29 06:25:48;;;;;;;16.27;10.33;;;;;;;;;;4974166;28;20026;-68
2021/12/29 06:28:13;;;;;;;16.37;10.87;;;9.30;99.90;;;;;;4974878;28;20026;-68
2021/12/29 06:30:39;;;;;;;17.40;9.90;;;;;;;;;;4974296;28;20412;-68
2021/12/29 06:33:05;;;;;;;15.70;9.90;;;9.30;99.90;;;;;;4975153;28;20019;-68
2021/12/29 06:35:31;;;;;;;14.77;11.07;;;;;;;;;;4974798;28;20046;-68
2021/12/29 06:37:56;;;;;;;17.73;10.20;;;9.30;99.90;;;;;;4974842;28;20023;-68
2021/12/29 06:40:22;;;;;;;17.73;10.47;;;9.30;99.90;;;;;;4973811;28;20041;-68
2021/12/29 06:42:47;;;;;;;15.87;10.97;;;9.30;99.90;;;;;;4974543;28;20034;-68
2021/12/29 06:45:13;;;;;;;20.57;12.57;;;9.30;99.90;;;;;;4974814;28;20037;-68
2021/12/29 06:47:39;;;;;;;25.20;14.23;;;;;;;;;;4972960;28;20078;-68
2021/12/29 06:50:06;;;;;;;18.53;12.13;;;9.20;99.90;;;;;;4973383;28;20141;-68
2021/12/29 06:52:31;;;;;;;26.37;13.83;;;9.10;99.90;;;;;;4974975;28;20485;-68
2021/12/29 06:54:57;;;;;;;17.30;11.47;;;9.10;99.90;;;;;;4974228;28;20136;-68
2021/12/29 06:57:23;;;;;;;24.00;13.73;;;;;;;;;;4974856;28;20482;-68
2021/12/29 06:59:49;;;;;;;27.77;12.90;;;;;;;;;;4974446;28;20110;-68
2021/12/29 07:02:15;;;;;;;25.40;13.30;;;9.20;99.90;;;;;;4975101;28;20054;-68
2021/12/29 07:04:43;;;;;;;21.97;13.57;;;9.00;99.90;;;;;;4974537;28;20543;-68
2021/12/29 07:07:09;;;;;;;27.17;12.07;;;9.00;99.90;;;;;;4974922;28;20035;-68
2021/12/29 07:09:34;;;;;;;22.23;13.47;;;9.00;99.90;;;;;;4974285;28;20023;-68
2021/12/29 07:12:01;;;;;;;19.97;12.97;;;;;;;;;;4972094;28;20421;-68
2021/12/29 07:14:26;;;;;;;21.20;11.80;;;9.10;99.90;;;;;;4971567;28;20110;-68
2021/12/29 07:16:52;;;;;;;23.70;13.70;;;;;;;;;;4971592;28;20154;-68
2021/12/29 07:19:19;;;;;;;20.93;13.80;;;9.20;99.90;;;;;;4971999;28;20058;-68
2021/12/29 07:21:46;;;;;;;25.27;13.50;;;9.10;99.90;;;;;;4971254;28;20031;-68
2021/12/29 07:24:12;;;;;;;20.57;13.90;;;9.10;99.90;;;;;;4970978;28;20030;-69
2021/12/29 07:26:38;;;;;;;22.77;14.30;;;9.10;99.90;;;;;;4971303;28;20429;-68
2021/12/29 07:29:05;;;;;;;22.07;14.87;;;9.40;99.90;;;;;;4970918;28;20054;-68
2021/12/29 07:31:31;;;;;;;30.10;15.03;;;9.10;99.90;;;;;;4970968;28;20111;-68
2021/12/29 07:33:57;;;;;;;22.63;14.83;;;9.10;99.90;;;;;;4970911;28;20062;-69
2021/12/29 07:36:23;;;;;;;23.23;13.83;;;;;;;;;;4971006;28;20065;-68
2021/12/29 07:38:49;;;;;;;20.20;13.57;;;;;;;;;;4970117;28;20030;-68
2021/12/29 07:41:14;;;;;;;24.47;14.90;;;9.00;99.90;;;;;;4971453;28;20085;-67
2021/12/29 07:43:41;;;;;;;22.57;14.43;;;9.00;99.90;;;;;;4970051;28;20038;-67
2021/12/29 07:46:07;;;;;;;20.47;13.43;;;9.10;99.90;;;;;;4968121;28;20035;-67
2021/12/29 07:48:34;;;;;;;19.60;12.27;;;9.10;99.90;;;;;;4970870;28;20154;-67
2021/12/29 07:51:04;;;;;;;17.83;12.80;;;9.00;99.90;;;;;;4970927;28;20027;-67
2021/12/29 07:53:29;;;;;;;21.57;13.47;;;8.90;99.90;;;;;;4971047;28;20030;-67
2021/12/29 07:55:55;;;;;;;21.70;13.07;;;;;;;;;;4970783;28;20086;-68
2021/12/29 07:58:22;;;;;;;21.37;13.63;;;8.90;99.90;;;;;;4970835;28;20070;-67
2021/12/29 08:00:48;;;;;;;18.60;14.10;;;8.80;99.90;;;;;;4968774;28;20432;-67
2021/12/29 08:03:14;;;;;;;20.67;13.00;;;9.10;99.90;;;;;;4964315;28;20035;-67
2021/12/29 08:05:41;;;;;;;19.93;14.10;;;8.90;99.90;;;;;;4966346;28;20026;-67
2021/12/29 08:08:07;;;;;;;23.70;14.23;;;;;;;;;;4970490;28;20034;-67
2021/12/29 08:10:36;;;;;;;24.90;15.00;;;9.00;99.90;;;;;;4970644;28;20105;-67
2021/12/29 08:13:04;;;;;;;30.73;16.73;;;9.00;99.90;;;;;;4970449;28;20023;-67
2021/12/29 08:15:32;;;;;;;28.13;14.50;;;8.80;99.90;;;;;;4969027;28;20114;-68
2021/12/29 08:17:58;;;;;;;20.13;15.30;;;9.00;99.90;;;;;;4968758;28;20058;-67
2021/12/29 08:20:23;;;;;;;28.80;15.37;;;;;;;;;;4969219;28;20062;-67
2021/12/29 08:22:49;;;;;;;30.20;16.37;;;9.10;99.90;;;;;;4969867;28;20114;-67
2021/12/29 08:25:15;;;;;;;24.23;15.30;;;8.90;99.90;;;;;;4969646;28;20031;-67
2021/12/29 08:27:40;;;;;;;24.30;15.73;;;9.00;99.90;;;;;;4969304;28;20101;-67
2021/12/29 08:30:07;;;;;;;25.53;15.07;;;9.20;99.90;;;;;;4969124;28;20074;-67
2021/12/29 08:32:33;;;;;;;24.40;14.77;;;9.10;99.90;;;;;;4969643;28;20026;-66
2021/12/29 08:34:58;;;;;;;23.73;14.77;;;9.10;99.90;;;;;;4969363;28;20051;-67
2021/12/29 08:37:24;;;;;;;28.40;15.70;;;9.10;99.90;;;;;;4969757;28;20982;-67
2021/12/29 08:39:49;;;;;;;23.03;15.47;;;9.10;99.90;;;;;;4969425;28;20499;-67
2021/12/29 08:42:15;;;;;;;28.83;15.40;;;;;;;;;;4969898;28;20011;-67
2021/12/29 08:44:41;;;;;;;27.73;17.50;;;9.20;99.90;;;;;;4968869;28;20493;-67
2021/12/29 08:47:08;;;;;;;24.57;16.13;;;;;;;;;;4968251;28;20512;-66
2021/12/29 08:49:34;;;;;;;25.53;16.43;;;9.40;99.90;;;;;;4968961;28;20105;-68
2021/12/29 08:52:00;;;;;;;36.67;17.93;;;9.10;99.90;;;;;;4969395;28;20589;-68
2021/12/29 08:54:26;;;;;;;22.73;16.43;;;;;;;;;;4967411;28;20043;-68
2021/12/29 08:56:54;;;;;;;26.90;17.87;;;9.20;99.90;;;;;;4968786;28;20093;-68
2021/12/29 08:59:20;;;;;;;29.57;17.93;;;9.30;99.90;;;;;;4969236;28;20023;-68
2021/12/29 09:01:45;;;;;;;23.70;17.03;;;9.30;99.90;;;;;;4967958;28;20461;-68
2021/12/29 09:04:11;;;;;;;31.73;18.10;;;;;;;;;;4967965;28;20027;-68
2021/12/29 09:06:37;;;;;;;27.80;17.37;;;9.10;99.90;;;;;;4965210;28;20026;-68
2021/12/29 09:09:03;;;;;;;33.13;19.30;;;9.10;99.90;;;;;;4969218;28;20548;-68
2021/12/29 09:11:30;;;;;;;32.07;18.90;;;;;;;;;;4969108;28;20023;-68
2021/12/29 09:13:56;;;;;;;27.93;16.17;;;;;;;;;;4968643;28;20041;-68
2021/12/29 09:16:22;;;;;;;44.37;19.77;;;;;;;;;;4969481;28;20038;-68
2021/12/29 09:18:48;;;;;;;28.80;18.87;;;9.20;99.90;;;;;;4968817;28;20034;-68
2021/12/29 09:21:16;;;;;;;26.17;17.73;;;;;;;;;;4969732;28;20035;-68
2021/12/29 09:23:42;;;;;;;26.40;16.53;;;8.90;99.90;;;;;;4968650;28;20085;-68
2021/12/29 09:26:14;;;;;;;26.70;17.67;;;9.20;99.90;;;;;;4968603;28;20105;-68
2021/12/29 09:28:41;;;;;;;28.97;17.80;;;;;;;;;;4968497;28;20051;-68
2021/12/29 09:31:07;;;;;;;31.27;18.47;;;9.30;99.90;;;;;;4967359;28;20037;-68
2021/12/29 09:33:33;;;;;;;27.77;16.50;;;9.40;99.90;;;;;;4968772;28;20039;-68
2021/12/29 09:36:02;;;;;;;29.10;18.57;;;9.70;99.90;;;;;;4968267;28;20127;-68
2021/12/29 09:38:31;;;;;;;26.80;15.93;;;9.30;99.90;;;;;;4968837;28;20037;-68
2021/12/29 09:40:57;;;;;;;24.97;15.33;;;9.30;99.90;;;;;;4969144;28;20031;-67
2021/12/29 09:43:23;;;;;;;32.10;19.43;;;;;;;;;;4968144;28;20495;-66
2021/12/29 09:45:50;;;;;;;27.50;16.97;;;9.40;99.90;;;;;;4968101;28;20101;-66
2021/12/29 09:48:16;;;;;;;25.57;17.43;;;9.40;99.90;;;;;;4968478;28;20027;-67
2021/12/29 09:50:43;;;;;;;26.97;16.60;;;9.40;99.90;;;;;;4968888;28;20420;-67
2021/12/29 09:53:09;;;;;;;25.67;17.83;;;9.40;99.90;;;;;;4968535;28;20035;-66
2021/12/29 09:55:36;;;;;;;24.57;16.97;;;9.40;99.90;;;;;;4968516;28;20065;-67
2021/12/29 09:58:03;;;;;;;25.13;15.30;;;9.40;99.90;;;;;;4969057;28;20461;-67
2021/12/29 10:00:33;;;;;;;23.30;16.10;;;9.50;99.90;;;;;;4968698;28;20035;-67
2021/12/29 10:03:03;;;;;;;23.20;15.13;;;9.50;99.90;;;;;;4968177;28;20109;-67
2021/12/29 10:05:30;;;;;;;21.53;14.57;;;9.60;99.90;;;;;;4968216;28;20456;-67
2021/12/29 10:08:08;;;;;;;22.77;15.70;;;9.50;99.90;;;;;;4967901;28;20022;-67
2021/12/29 10:10:36;;;;;;;23.73;15.37;;;9.40;99.90;;;;;;4967790;28;20104;-67
2021/12/29 10:13:03;;;;;;;20.57;15.83;;;9.50;99.90;;;;;;4968151;28;20023;-67
2021/12/29 10:15:32;;;;;;;22.80;15.90;;;9.60;99.90;;;;;;4968598;28;20070;-67
2021/12/29 10:18:07;;;;;;;26.03;16.57;;;9.70;99.90;;;;;;4968393;28;20134;-67
2021/12/29 10:20:33;;;;;;;21.93;15.80;;;9.70;99.90;;;;;;4968965;28;20388;-67
2021/12/29 10:22:59;;;;;;;20.73;14.47;;;9.50;99.90;;;;;;4968147;28;20030;-67
2021/12/29 10:25:26;;;;;;;17.53;13.23;;;;;;;;;;4967611;28;20026;-67
2021/12/29 10:27:53;;;;;;;23.73;16.87;;;9.50;99.90;;;;;;4968195;28;20023;-67
2021/12/29 10:30:29;;;;;;;21.17;16.30;;;9.70;99.90;;;;;;4968344;28;20046;-67
2021/12/29 10:32:56;;;;;;;23.50;15.57;;;9.80;99.90;;;;;;4967150;28;20043;-67
2021/12/29 10:35:23;;;;;;;24.73;16.20;;;9.80;99.90;;;;;;4968604;28;20517;-68
2021/12/29 10:37:50;;;;;;;26.13;15.80;;;9.70;99.90;;;;;;4967945;28;20031;-68
2021/12/29 10:40:29;;;;;;;25.80;16.47;;;9.80;99.90;;;;;;4967638;28;20038;-68
2021/12/29 10:42:57;;;;;;;22.07;16.07;;;10.20;99.90;;;;;;4967364;28;20029;-68
2021/12/29 10:45:32;;;;;;;19.23;13.70;;;10.00;99.90;;;;;;4967315;28;20093;-68
2021/12/29 10:47:58;;;;;;;22.87;14.37;;;9.50;99.90;;;;;;4971413;28;20066;-68
2021/12/29 10:50:25;;;;;;;25.37;15.77;;;;;;;;;;4971126;28;20030;-68
2021/12/29 10:52:54;;;;;;;20.03;13.63;;;9.60;99.90;;;;;;4971985;28;20077;-68
2021/12/29 10:55:35;;;;;;;19.00;14.03;;;9.90;99.90;;;;;;4971480;28;20034;-68
2021/12/29 10:58:11;;;;;;;16.07;12.73;;;9.80;99.90;;;;;;4971021;28;20099;-67
2021/12/29 11:00:39;;;;;;;15.63;13.10;;;9.80;99.90;;;;;;4969929;28;20118;-67
2021/12/29 11:03:20;;;;;;;17.23;13.57;;;9.90;99.90;;;;;;4971831;28;20568;-67
2021/12/29 11:05:53;;;;;;;18.03;13.23;;;9.90;99.90;;;;;;4971166;28;20373;-67
2021/12/29 11:08:19;;;;;;;17.57;12.97;;;;;;;;;;4971657;28;20133;-67
2021/12/29 11:10:46;;;;;;;18.07;15.47;;;9.90;99.90;;;;;;4970381;28;20038;-67
2021/12/29 11:13:12;;;;;;;17.07;14.57;;;;;;;;;;4983801;28;20043;-67
2021/12/29 11:15:41;;;;;;;19.47;14.67;;;10.10;99.90;;;;;;4963253;28;20065;-67
2021/12/29 11:18:12;;;;;;;18.47;13.73;;;10.20;99.90;;;;;;4964556;28;20098;-66
2021/12/29 11:20:39;;;;;;;20.23;15.10;;;10.00;99.90;;;;;;4971367;28;20058;-67
2021/12/29 11:23:17;;;;;;;18.90;14.93;;;10.00;99.90;;;;;;4971378;28;20069;-67
2021/12/29 11:25:44;;;;;;;18.77;14.47;;;10.00;99.90;;;;;;4970310;28;20508;-67
2021/12/29 11:28:28;;;;;;;15.33;13.67;;;10.10;99.90;;;;;;4971650;28;20031;-67
2021/12/29 11:30:56;;;;;;;19.50;13.90;;;10.00;99.90;;;;;;4970848;28;20046;-67
2021/12/29 11:33:23;;;;;;;21.23;15.87;;;;;;;;;;4971746;28;20035;-67
2021/12/29 11:35:53;;;;;;;15.50;12.97;;;10.00;99.90;;;;;;4971192;28;20039;-67
2021/12/29 11:38:21;;;;;;;17.70;13.60;;;9.90;99.90;;;;;;4971493;28;20084;-67
2021/12/29 11:40:49;;;;;;;15.90;12.60;;;10.00;99.90;;;;;;4970621;28;20107;-68
2021/12/29 11:43:17;;;;;;;15.70;14.03;;;9.90;99.90;;;;;;4970965;28;20101;-67
2021/12/29 11:45:44;;;;;;;19.93;14.17;;;9.90;99.90;;;;;;4970728;28;20033;-68
2021/12/29 11:48:11;;;;;;;20.93;16.33;;;9.50;99.90;;;;;;4971444;28;20099;-68
2021/12/29 11:50:44;;;;;;;16.33;14.63;;;9.90;99.90;;;;;;4971224;28;20442;-67
2021/12/29 11:53:44;;;;;;;17.38;14.98;;;10.00;99.90;;;;;;4971160;28;20449;-67
2021/12/29 11:56:17;;;;;;;16.13;13.63;;;10.00;99.90;;;;;;4971115;28;20054;-67
2021/12/29 11:58:44;;;;;;;17.23;15.38;;;9.90;99.90;;;;;;4969376;28;20023;-68
2021/12/29 12:01:21;;;;;;;18.17;13.90;;;10.00;99.90;;;;;;4970856;28;20031;-67
2021/12/29 12:03:59;;;;;;;16.63;13.87;;;10.20;99.90;;;;;;4970833;28;20027;-67
2021/12/29 12:06:42;;;;;;;17.67;14.33;;;9.90;99.90;;;;;;4969654;28;20545;-67
2021/12/29 12:09:21;;;;;;;17.75;13.90;;;10.00;99.90;;;;;;4971172;28;20023;-67
2021/12/29 12:11:52;;;;;;;18.03;14.20;;;9.80;99.90;;;;;;4970562;28;20026;-67
2021/12/29 12:14:34;;;;;;;15.23;13.60;;;9.40;99.90;;;;;;4968347;28;20067;-67
2021/12/29 12:17:08;;;;;;;21.00;13.70;;;9.90;99.90;;;;;;4970362;28;20491;-67
2021/12/29 12:19:34;;;;;;;16.00;13.43;;;9.40;99.90;;;;;;4970817;28;20508;-68
2021/12/29 12:22:02;;;;;;;16.70;12.93;;;10.10;99.90;;;;;;4970600;28;20066;-67
2021/12/29 12:24:28;;;;;;;19.03;13.77;;;10.00;99.90;;;;;;4970656;28;20812;-67
2021/12/29 12:26:59;;;;;;;16.10;12.70;;;10.00;99.90;;;;;;4970113;28;20035;-67
2021/12/29 12:29:29;;;;;;;20.37;13.40;;;9.90;99.90;;;;;;4970312;28;20047;-68
2021/12/29 12:32:09;;;;;;;17.70;14.00;;;10.10;99.90;;;;;;4970553;28;20035;-67
2021/12/29 12:34:56;;;;;;;16.03;12.33;;;10.10;99.90;;;;;;4970564;28;20173;-68
2021/12/29 12:37:34;;;;;;;15.97;11.37;;;10.10;99.90;;;;;;4970707;28;20019;-68
2021/12/29 12:40:21;;;;;;;20.50;11.93;;;10.10;99.90;;;;;;4970443;28;20062;-68
2021/12/29 12:43:07;;;;;;;17.63;12.87;;;10.00;99.90;;;;;;4969594;28;20424;-68
2021/12/29 12:45:35;;;;;;;16.30;11.60;;;10.20;99.90;;;;;;4968975;28;20034;-68
2021/12/29 12:48:05;;;;;;;16.90;12.33;;;10.00;99.90;;;;;;4969884;28;20030;-68
2021/12/29 12:50:31;;;;;;;14.37;12.40;;;10.00;99.90;;;;;;4970385;28;20018;-68
2021/12/29 12:52:57;;;;;;;15.43;11.70;;;9.90;99.90;;;;;;4970021;28;20078;-68
2021/12/29 12:55:24;;;;;;;16.43;12.63;;;9.90;99.90;;;;;;4968362;28;20101;-68
2021/12/29 12:57:50;;;;;;;17.40;12.43;;;;;;;;;;4969085;28;20387;-68
2021/12/29 13:00:26;;;;;;;13.93;10.70;;;10.20;99.90;;;;;;4970047;28;20126;-68
2021/12/29 13:02:59;;;;;;;14.40;12.30;;;10.00;99.90;;;;;;4968773;28;20103;-67
2021/12/29 13:05:31;;;;;;;17.50;12.13;;;9.90;99.90;;;;;;4969473;28;20054;-68
2021/12/29 13:08:06;;;;;;;14.63;11.53;;;9.90;99.90;;;;;;4969653;28;20027;-67
2021/12/29 13:10:38;;;;;;;13.03;10.90;;;9.90;99.90;;;;;;4967777;28;20101;-67